sensor_id;sensor_type;location;lat;lon;timestamp;pressure;altitude;pressure_sealevel;temperature;humidity
15314;BME280;7757;52.626;4.746;2022-11-15T00:01:52;100625.75;;;17.71;58.59
15314;BME280;7757;52.626;4.746;2022-11-15T00:04:19;100620.59;;;17.70;58.90
15314;BME280;7757;52.626;4.746;2022-11-15T00:06:45;100616.03;;;17.70;58.88
15314;BME280;7757;52.626;4.746;2022-11-15T00:09:12;100618.16;;;17.68;58.90
15314;BME280;7757;52.626;4.746;2022-11-15T00:11:38;100624.13;;;17.70;58.82
15314;BME280;7757;52.626;4.746;2022-11-15T00:14:05;100608.03;;;17.64;59.36
15314;BME280;7757;52.626;4.746;2022-11-15T00:16:33;100606.72;;;17.66;58.89
15314;BME280;7757;52.626;4.746;2022-11-15T00:18:59;100604.00;;;17.66;58.83
15314;BME280;7757;52.626;4.746;2022-11-15T00:21:26;100601.09;;;17.68;58.86
15314;BME280;7757;52.626;4.746;2022-11-15T00:23:55;100600.00;;;17.69;58.94
15314;BME280;7757;52.626;4.746;2022-11-15T00:26:22;100604.84;;;17.67;58.72
15314;BME280;7757;52.626;4.746;2022-11-15T00:28:51;100600.47;;;17.66;58.71
15314;BME280;7757;52.626;4.746;2022-11-15T00:31:18;100600.16;;;17.62;58.60
15314;BME280;7757;52.626;4.746;2022-11-15T00:33:46;100592.16;;;17.67;58.61
15314;BME280;7757;52.626;4.746;2022-11-15T00:36:12;100594.50;;;17.64;58.84
15314;BME280;7757;52.626;4.746;2022-11-15T00:38:39;100601.78;;;17.63;58.98
15314;BME280;7757;52.626;4.746;2022-11-15T00:41:07;100597.56;;;17.67;58.77
15314;BME280;7757;52.626;4.746;2022-11-15T00:43:33;100600.75;;;17.64;58.38
15314;BME280;7757;52.626;4.746;2022-11-15T00:46:00;100588.16;;;17.58;58.77
15314;BME280;7757;52.626;4.746;2022-11-15T00:48:28;100592.06;;;17.62;58.34
15314;BME280;7757;52.626;4.746;2022-11-15T00:50:55;100589.56;;;17.61;58.73
15314;BME280;7757;52.626;4.746;2022-11-15T00:53:22;100579.81;;;17.60;58.73
15314;BME280;7757;52.626;4.746;2022-11-15T00:55:49;100583.69;;;17.64;59.08
15314;BME280;7757;52.626;4.746;2022-11-15T00:58:15;100573.25;;;17.56;58.77
15314;BME280;7757;52.626;4.746;2022-11-15T01:00:42;100575.22;;;17.60;59.03
15314;BME280;7757;52.626;4.746;2022-11-15T01:03:08;100563.81;;;17.58;58.77
15314;BME280;7757;52.626;4.746;2022-11-15T01:05:36;100564.66;;;17.59;58.78
15314;BME280;7757;52.626;4.746;2022-11-15T01:08:05;100569.72;;;17.55;58.86
15314;BME280;7757;52.626;4.746;2022-11-15T01:10:31;100561.94;;;17.59;58.86
15314;BME280;7757;52.626;4.746;2022-11-15T01:12:58;100571.13;;;17.58;58.60
15314;BME280;7757;52.626;4.746;2022-11-15T01:15:25;100575.69;;;17.57;58.95
15314;BME280;7757;52.626;4.746;2022-11-15T01:17:51;100567.44;;;17.52;59.03
15314;BME280;7757;52.626;4.746;2022-11-15T01:20:18;100557.47;;;17.53;58.93
15314;BME280;7757;52.626;4.746;2022-11-15T01:22:44;100554.53;;;17.54;59.29
15314;BME280;7757;52.626;4.746;2022-11-15T01:25:12;100555.34;;;17.55;59.08
15314;BME280;7757;52.626;4.746;2022-11-15T01:27:39;100577.81;;;17.55;58.84
15314;BME280;7757;52.626;4.746;2022-11-15T01:30:07;100567.59;;;17.57;58.64
15314;BME280;7757;52.626;4.746;2022-11-15T01:32:34;100565.78;;;17.51;58.93
15314;BME280;7757;52.626;4.746;2022-11-15T01:35:01;100561.22;;;17.52;58.67
15314;BME280;7757;52.626;4.746;2022-11-15T01:37:27;100572.59;;;17.54;58.92
15314;BME280;7757;52.626;4.746;2022-11-15T01:39:54;100573.91;;;17.51;58.59
15314;BME280;7757;52.626;4.746;2022-11-15T01:42:22;100565.13;;;17.56;58.72
15314;BME280;7757;52.626;4.746;2022-11-15T01:44:49;100558.50;;;17.52;58.91
15314;BME280;7757;52.626;4.746;2022-11-15T01:47:19;100549.00;;;17.49;58.69
15314;BME280;7757;52.626;4.746;2022-11-15T01:49:55;100544.41;;;17.50;58.59
15314;BME280;7757;52.626;4.746;2022-11-15T01:52:25;100536.06;;;17.51;58.68
15314;BME280;7757;52.626;4.746;2022-11-15T01:54:56;100540.41;;;17.52;59.09
15314;BME280;7757;52.626;4.746;2022-11-15T01:57:26;100545.25;;;17.50;58.56
15314;BME280;7757;52.626;4.746;2022-11-15T01:59:53;100542.75;;;17.49;58.54
15314;BME280;7757;52.626;4.746;2022-11-15T02:02:20;100541.72;;;17.50;58.75
15314;BME280;7757;52.626;4.746;2022-11-15T02:04:47;100533.03;;;17.48;59.22
15314;BME280;7757;52.626;4.746;2022-11-15T02:07:16;100533.59;;;17.50;58.82
15314;BME280;7757;52.626;4.746;2022-11-15T02:09:44;100524.91;;;17.48;58.58
15314;BME280;7757;52.626;4.746;2022-11-15T02:12:13;100523.34;;;17.52;58.52
15314;BME280;7757;52.626;4.746;2022-11-15T02:14:44;100529.50;;;17.47;58.90
15314;BME280;7757;52.626;4.746;2022-11-15T02:17:22;100526.78;;;17.47;58.63
15314;BME280;7757;52.626;4.746;2022-11-15T02:20:39;100511.88;;;17.45;59.20
15314;BME280;7757;52.626;4.746;2022-11-15T02:23:44;100508.34;;;17.44;58.80
15314;BME280;7757;52.626;4.746;2022-11-15T02:26:45;100501.84;;;17.45;58.83
15314;BME280;7757;52.626;4.746;2022-11-15T02:29:28;100487.19;;;17.41;59.04
15314;BME280;7757;52.626;4.746;2022-11-15T02:32:05;100488.03;;;17.42;59.02
15314;BME280;7757;52.626;4.746;2022-11-15T02:34:35;100478.00;;;17.42;59.09
15314;BME280;7757;52.626;4.746;2022-11-15T02:37:11;100480.94;;;17.41;59.00
15314;BME280;7757;52.626;4.746;2022-11-15T02:39:46;100485.78;;;17.39;58.81
15314;BME280;7757;52.626;4.746;2022-11-15T02:42:16;100479.91;;;17.42;58.84
15314;BME280;7757;52.626;4.746;2022-11-15T02:45:05;100466.88;;;17.39;59.17
15314;BME280;7757;52.626;4.746;2022-11-15T02:47:41;100472.50;;;17.37;59.01
15314;BME280;7757;52.626;4.746;2022-11-15T02:50:10;100470.03;;;17.36;58.45
15314;BME280;7757;52.626;4.746;2022-11-15T02:52:38;100463.81;;;17.35;58.71
15314;BME280;7757;52.626;4.746;2022-11-15T02:55:26;100464.38;;;17.37;58.55
15314;BME280;7757;52.626;4.746;2022-11-15T02:58:03;100461.34;;;17.34;58.62
15314;BME280;7757;52.626;4.746;2022-11-15T03:00:34;100457.00;;;17.33;58.97
15314;BME280;7757;52.626;4.746;2022-11-15T03:03:18;100457.56;;;17.35;58.71
15314;BME280;7757;52.626;4.746;2022-11-15T03:05:53;100461.69;;;17.37;58.52
15314;BME280;7757;52.626;4.746;2022-11-15T03:08:31;100451.91;;;17.36;59.10
15314;BME280;7757;52.626;4.746;2022-11-15T03:11:03;100435.81;;;17.41;58.53
15314;BME280;7757;52.626;4.746;2022-11-15T03:13:36;100435.13;;;17.34;58.54
15314;BME280;7757;52.626;4.746;2022-11-15T03:16:07;100442.41;;;17.34;58.86
15314;BME280;7757;52.626;4.746;2022-11-15T03:18:39;100438.09;;;17.33;59.06
15314;BME280;7757;52.626;4.746;2022-11-15T03:21:09;100432.19;;;17.36;58.85
15314;BME280;7757;52.626;4.746;2022-11-15T03:23:39;100445.72;;;17.36;59.11
15314;BME280;7757;52.626;4.746;2022-11-15T03:26:09;100435.94;;;17.35;58.89
15314;BME280;7757;52.626;4.746;2022-11-15T03:28:41;100444.88;;;17.35;58.84
15314;BME280;7757;52.626;4.746;2022-11-15T03:31:12;100438.09;;;17.33;58.99
15314;BME280;7757;52.626;4.746;2022-11-15T03:34:01;100429.50;;;17.36;59.13
15314;BME280;7757;52.626;4.746;2022-11-15T03:36:31;100431.59;;;17.34;59.01
15314;BME280;7757;52.626;4.746;2022-11-15T03:39:02;100427.00;;;17.34;59.13
15314;BME280;7757;52.626;4.746;2022-11-15T03:41:37;100423.25;;;17.35;59.20
15314;BME280;7757;52.626;4.746;2022-11-15T03:44:13;100429.72;;;17.34;59.14
15314;BME280;7757;52.626;4.746;2022-11-15T03:46:46;100414.56;;;17.33;59.15
15314;BME280;7757;52.626;4.746;2022-11-15T03:49:17;100425.63;;;17.32;58.91
15314;BME280;7757;52.626;4.746;2022-11-15T03:51:46;100423.97;;;17.30;59.38
15314;BME280;7757;52.626;4.746;2022-11-15T03:54:13;100415.75;;;17.25;59.11
15314;BME280;7757;52.626;4.746;2022-11-15T03:56:40;100414.25;;;17.29;59.01
15314;BME280;7757;52.626;4.746;2022-11-15T03:59:06;100414.81;;;17.32;58.91
15314;BME280;7757;52.626;4.746;2022-11-15T04:01:33;100413.16;;;17.30;59.29
15314;BME280;7757;52.626;4.746;2022-11-15T04:03:59;100410.13;;;17.27;59.00
15314;BME280;7757;52.626;4.746;2022-11-15T04:06:27;100409.63;;;17.30;58.64
15314;BME280;7757;52.626;4.746;2022-11-15T04:08:54;100406.34;;;17.28;59.01
15314;BME280;7757;52.626;4.746;2022-11-15T04:11:20;100410.44;;;17.30;58.92
15314;BME280;7757;52.626;4.746;2022-11-15T04:13:47;100408.56;;;17.31;58.74
15314;BME280;7757;52.626;4.746;2022-11-15T04:16:13;100404.47;;;17.28;58.95
15314;BME280;7757;52.626;4.746;2022-11-15T04:18:40;100399.31;;;17.27;59.17
15314;BME280;7757;52.626;4.746;2022-11-15T04:21:07;100396.09;;;17.30;59.20
15314;BME280;7757;52.626;4.746;2022-11-15T04:23:53;100397.75;;;17.31;58.88
15314;BME280;7757;52.626;4.746;2022-11-15T04:26:37;100398.50;;;17.26;58.81
15314;BME280;7757;52.626;4.746;2022-11-15T04:29:04;100396.09;;;17.30;58.88
15314;BME280;7757;52.626;4.746;2022-11-15T04:31:59;100399.06;;;17.28;58.95
15314;BME280;7757;52.626;4.746;2022-11-15T04:34:26;100399.91;;;17.29;58.64
15314;BME280;7757;52.626;4.746;2022-11-15T04:36:52;100401.50;;;17.30;59.19
15314;BME280;7757;52.626;4.746;2022-11-15T04:39:38;100396.38;;;17.28;58.85
15314;BME280;7757;52.626;4.746;2022-11-15T04:42:04;100398.81;;;17.30;58.80
15314;BME280;7757;52.626;4.746;2022-11-15T04:44:31;100398.03;;;17.29;58.80
15314;BME280;7757;52.626;4.746;2022-11-15T04:46:58;100388.25;;;17.28;59.10
15314;BME280;7757;52.626;4.746;2022-11-15T04:49:24;100390.97;;;17.28;59.36
15314;BME280;7757;52.626;4.746;2022-11-15T04:51:51;100391.22;;;17.27;59.07
15314;BME280;7757;52.626;4.746;2022-11-15T04:54:17;100393.09;;;17.26;59.03
15314;BME280;7757;52.626;4.746;2022-11-15T04:56:45;100390.63;;;17.25;59.30
15314;BME280;7757;52.626;4.746;2022-11-15T04:59:12;100397.19;;;17.29;59.00
15314;BME280;7757;52.626;4.746;2022-11-15T05:01:38;100402.81;;;17.27;59.29
15314;BME280;7757;52.626;4.746;2022-11-15T05:04:05;100406.13;;;17.29;58.92
15314;BME280;7757;52.626;4.746;2022-11-15T05:06:47;100398.81;;;17.30;59.09
15314;BME280;7757;52.626;4.746;2022-11-15T05:09:14;100394.50;;;17.29;58.97
15314;BME280;7757;52.626;4.746;2022-11-15T05:11:41;100396.84;;;17.25;59.14
15314;BME280;7757;52.626;4.746;2022-11-15T05:14:09;100394.72;;;17.27;58.93
15314;BME280;7757;52.626;4.746;2022-11-15T05:16:35;100400.72;;;17.29;59.01
15314;BME280;7757;52.626;4.746;2022-11-15T05:19:03;100400.13;;;17.27;58.79
15314;BME280;7757;52.626;4.746;2022-11-15T05:21:30;100395.53;;;17.28;59.38
15314;BME280;7757;52.626;4.746;2022-11-15T05:23:56;100390.03;;;17.23;59.52
15314;BME280;7757;52.626;4.746;2022-11-15T05:26:23;100392.00;;;17.27;59.14
15314;BME280;7757;52.626;4.746;2022-11-15T05:28:52;100386.03;;;17.25;58.96
15314;BME280;7757;52.626;4.746;2022-11-15T05:31:21;100391.69;;;17.24;59.18
15314;BME280;7757;52.626;4.746;2022-11-15T05:33:49;100380.88;;;17.24;59.06
15314;BME280;7757;52.626;4.746;2022-11-15T05:36:20;100378.41;;;17.22;59.50
15314;BME280;7757;52.626;4.746;2022-11-15T05:38:48;100382.75;;;17.23;59.04
15314;BME280;7757;52.626;4.746;2022-11-15T05:41:17;100382.50;;;17.25;59.19
15314;BME280;7757;52.626;4.746;2022-11-15T05:43:45;100392.75;;;17.23;59.04
15314;BME280;7757;52.626;4.746;2022-11-15T05:46:13;100396.84;;;17.25;59.33
15314;BME280;7757;52.626;4.746;2022-11-15T05:48:43;100393.56;;;17.23;58.91
15314;BME280;7757;52.626;4.746;2022-11-15T05:51:12;100387.91;;;17.25;58.80
15314;BME280;7757;52.626;4.746;2022-11-15T05:53:41;100394.41;;;17.24;59.44
15314;BME280;7757;52.626;4.746;2022-11-15T05:56:08;100407.91;;;17.24;59.55
15314;BME280;7757;52.626;4.746;2022-11-15T05:58:36;100411.75;;;17.28;59.25
15314;BME280;7757;52.626;4.746;2022-11-15T06:01:03;100419.03;;;17.27;58.84
15314;BME280;7757;52.626;4.746;2022-11-15T06:03:30;100419.66;;;17.29;58.83
15314;BME280;7757;52.626;4.746;2022-11-15T06:05:58;100416.13;;;17.29;59.23
15314;BME280;7757;52.626;4.746;2022-11-15T06:08:25;100416.94;;;17.29;59.45
15314;BME280;7757;52.626;4.746;2022-11-15T06:10:51;100418.81;;;17.29;59.21
15314;BME280;7757;52.626;4.746;2022-11-15T06:13:18;100424.44;;;17.27;59.36
15314;BME280;7757;52.626;4.746;2022-11-15T06:15:44;100430.94;;;17.26;59.52
15314;BME280;7757;52.626;4.746;2022-11-15T06:18:11;100424.22;;;17.29;59.33
15314;BME280;7757;52.626;4.746;2022-11-15T06:20:37;100437.47;;;17.30;59.23
15314;BME280;7757;52.626;4.746;2022-11-15T06:23:08;100428.91;;;17.34;59.24
15314;BME280;7757;52.626;4.746;2022-11-15T06:25:34;100426.53;;;17.37;59.28
15314;BME280;7757;52.626;4.746;2022-11-15T06:28:01;100435.69;;;17.36;59.83
15314;BME280;7757;52.626;4.746;2022-11-15T06:30:27;100432.50;;;17.39;59.13
15314;BME280;7757;52.626;4.746;2022-11-15T06:33:04;100433.81;;;17.37;59.72
15314;BME280;7757;52.626;4.746;2022-11-15T06:35:33;100435.81;;;17.41;59.45
15314;BME280;7757;52.626;4.746;2022-11-15T06:38:02;100440.41;;;17.41;59.52
15314;BME280;7757;52.626;4.746;2022-11-15T06:40:33;100437.22;;;17.44;59.98
15314;BME280;7757;52.626;4.746;2022-11-15T06:42:59;100446.38;;;17.43;59.55
15314;BME280;7757;52.626;4.746;2022-11-15T06:45:26;100447.22;;;17.43;59.93
15314;BME280;7757;52.626;4.746;2022-11-15T06:47:53;100452.03;;;17.41;59.40
15314;BME280;7757;52.626;4.746;2022-11-15T06:50:19;100458.03;;;17.43;59.76
15314;BME280;7757;52.626;4.746;2022-11-15T06:52:46;100466.97;;;17.44;59.74
15314;BME280;7757;52.626;4.746;2022-11-15T06:55:13;100459.91;;;17.43;59.67
15314;BME280;7757;52.626;4.746;2022-11-15T06:57:47;100455.66;;;17.47;59.41
15314;BME280;7757;52.626;4.746;2022-11-15T07:00:16;100445.06;;;17.45;59.60
15314;BME280;7757;52.626;4.746;2022-11-15T07:02:43;100445.56;;;17.42;59.93
15314;BME280;7757;52.626;4.746;2022-11-15T07:05:09;100446.16;;;17.44;59.84
15314;BME280;7757;52.626;4.746;2022-11-15T07:07:36;100451.56;;;17.44;59.77
15314;BME280;7757;52.626;4.746;2022-11-15T07:10:03;100448.59;;;17.46;59.87
15314;BME280;7757;52.626;4.746;2022-11-15T07:12:30;100454.50;;;17.43;59.93
15314;BME280;7757;52.626;4.746;2022-11-15T07:14:58;100446.97;;;17.45;59.44
15314;BME280;7757;52.626;4.746;2022-11-15T07:17:25;100445.34;;;17.44;59.93
15314;BME280;7757;52.626;4.746;2022-11-15T07:19:51;100466.81;;;17.50;59.67
15314;BME280;7757;52.626;4.746;2022-11-15T07:22:18;100470.59;;;17.49;60.12
15314;BME280;7757;52.626;4.746;2022-11-15T07:24:45;100467.31;;;17.47;59.88
15314;BME280;7757;52.626;4.746;2022-11-15T07:27:11;100470.31;;;17.51;59.37
15314;BME280;7757;52.626;4.746;2022-11-15T07:29:38;100466.81;;;17.50;59.55
15314;BME280;7757;52.626;4.746;2022-11-15T07:32:06;100460.13;;;17.53;59.36
15314;BME280;7757;52.626;4.746;2022-11-15T07:34:32;100465.06;;;17.56;59.44
15314;BME280;7757;52.626;4.746;2022-11-15T07:36:59;100461.75;;;17.54;59.75
15314;BME280;7757;52.626;4.746;2022-11-15T07:39:25;100462.59;;;17.54;59.65
15314;BME280;7757;52.626;4.746;2022-11-15T07:41:52;100460.72;;;17.55;59.79
15314;BME280;7757;52.626;4.746;2022-11-15T07:44:39;100457.53;;;17.58;59.58
15314;BME280;7757;52.626;4.746;2022-11-15T07:47:07;100446.72;;;17.58;59.61
15314;BME280;7757;52.626;4.746;2022-11-15T07:49:34;100449.41;;;17.58;59.63
15314;BME280;7757;52.626;4.746;2022-11-15T07:52:00;100447.63;;;17.63;59.69
15314;BME280;7757;52.626;4.746;2022-11-15T07:54:27;100446.66;;;17.69;59.35
15314;BME280;7757;52.626;4.746;2022-11-15T07:56:53;100439.03;;;17.66;59.53
15314;BME280;7757;52.626;4.746;2022-11-15T07:59:20;100440.69;;;17.67;59.05
15314;BME280;7757;52.626;4.746;2022-11-15T08:01:46;100446.56;;;17.64;59.39
15314;BME280;7757;52.626;4.746;2022-11-15T08:04:14;100441.59;;;17.73;59.08
15314;BME280;7757;52.626;4.746;2022-11-15T08:06:41;100431.34;;;17.75;59.12
15314;BME280;7757;52.626;4.746;2022-11-15T08:09:08;100441.19;;;17.81;58.95
15314;BME280;7757;52.626;4.746;2022-11-15T08:11:34;100438.84;;;17.84;58.94
15314;BME280;7757;52.626;4.746;2022-11-15T08:14:01;100439.19;;;17.88;59.04
15314;BME280;7757;52.626;4.746;2022-11-15T08:16:27;100445.00;;;17.97;58.39
15314;BME280;7757;52.626;4.746;2022-11-15T08:18:54;100447.56;;;18.03;58.66
15314;BME280;7757;52.626;4.746;2022-11-15T08:21:22;100449.53;;;18.08;58.25
15314;BME280;7757;52.626;4.746;2022-11-15T08:23:50;100453.88;;;18.09;58.21
15314;BME280;7757;52.626;4.746;2022-11-15T08:26:17;100448.97;;;18.06;58.47
15314;BME280;7757;52.626;4.746;2022-11-15T08:28:43;100438.63;;;18.03;58.35
15314;BME280;7757;52.626;4.746;2022-11-15T08:31:13;100439.13;;;18.00;58.59
15314;BME280;7757;52.626;4.746;2022-11-15T08:33:42;100423.94;;;17.99;58.48
15314;BME280;7757;52.626;4.746;2022-11-15T08:36:12;100415.47;;;17.95;58.48
15314;BME280;7757;52.626;4.746;2022-11-15T08:38:41;100410.66;;;17.97;59.00
15314;BME280;7757;52.626;4.746;2022-11-15T08:41:11;100408.19;;;17.96;58.55
15314;BME280;7757;52.626;4.746;2022-11-15T08:43:38;100403.94;;;18.00;58.64
15314;BME280;7757;52.626;4.746;2022-11-15T08:46:05;100415.66;;;18.05;58.59
15314;BME280;7757;52.626;4.746;2022-11-15T08:48:31;100415.25;;;18.13;58.29
15314;BME280;7757;52.626;4.746;2022-11-15T08:50:58;100405.66;;;18.22;58.17
15314;BME280;7757;52.626;4.746;2022-11-15T08:53:24;100398.75;;;18.31;57.84
15314;BME280;7757;52.626;4.746;2022-11-15T08:55:52;100399.09;;;18.35;57.53
15314;BME280;7757;52.626;4.746;2022-11-15T08:58:19;100399.16;;;18.40;57.53
15314;BME280;7757;52.626;4.746;2022-11-15T09:00:45;100397.03;;;18.42;57.40
15314;BME280;7757;52.626;4.746;2022-11-15T09:03:12;100395.13;;;18.42;57.46
15314;BME280;7757;52.626;4.746;2022-11-15T09:05:38;100399.59;;;18.49;57.40
15314;BME280;7757;52.626;4.746;2022-11-15T09:08:05;100394.50;;;18.52;57.23
15314;BME280;7757;52.626;4.746;2022-11-15T09:10:32;100395.88;;;18.55;57.11
15314;BME280;7757;52.626;4.746;2022-11-15T09:13:00;100401.91;;;18.57;57.03
15314;BME280;7757;52.626;4.746;2022-11-15T09:15:26;100399.97;;;18.57;57.07
15314;BME280;7757;52.626;4.746;2022-11-15T09:17:53;100404.00;;;18.55;57.18
15314;BME280;7757;52.626;4.746;2022-11-15T09:20:19;100400.41;;;18.49;57.41
15314;BME280;7757;52.626;4.746;2022-11-15T09:22:46;100406.06;;;18.48;57.42
15314;BME280;7757;52.626;4.746;2022-11-15T09:25:13;100399.34;;;18.50;57.26
15314;BME280;7757;52.626;4.746;2022-11-15T09:27:39;100396.66;;;18.50;57.07
15314;BME280;7757;52.626;4.746;2022-11-15T09:30:09;100391.84;;;18.57;57.24
15314;BME280;7757;52.626;4.746;2022-11-15T09:32:36;100384.38;;;18.64;56.82
15314;BME280;7757;52.626;4.746;2022-11-15T09:35:03;100393.41;;;18.70;56.60
15314;BME280;7757;52.626;4.746;2022-11-15T09:37:31;100398.59;;;18.71;56.48
15314;BME280;7757;52.626;4.746;2022-11-15T09:39:58;100389.03;;;18.69;56.68
15314;BME280;7757;52.626;4.746;2022-11-15T09:42:38;100404.31;;;18.75;56.54
15314;BME280;7757;52.626;4.746;2022-11-15T09:45:16;100395.16;;;18.81;56.26
15314;BME280;7757;52.626;4.746;2022-11-15T09:48:09;100396.19;;;18.97;56.11
15314;BME280;7757;52.626;4.746;2022-11-15T09:50:43;100394.63;;;19.01;56.09
15314;BME280;7757;52.626;4.746;2022-11-15T09:53:14;100397.41;;;19.06;55.39
15314;BME280;7757;52.626;4.746;2022-11-15T09:55:47;100395.00;;;19.09;55.58
15314;BME280;7757;52.626;4.746;2022-11-15T09:58:22;100398.34;;;19.16;55.48
15314;BME280;7757;52.626;4.746;2022-11-15T10:00:52;100398.66;;;19.20;55.32
15314;BME280;7757;52.626;4.746;2022-11-15T10:03:25;100385.69;;;19.22;55.41
15314;BME280;7757;52.626;4.746;2022-11-15T10:05:55;100384.88;;;19.21;55.22
15314;BME280;7757;52.626;4.746;2022-11-15T10:08:33;100385.91;;;19.20;55.40
15314;BME280;7757;52.626;4.746;2022-11-15T10:11:04;100391.28;;;19.15;55.60
15314;BME280;7757;52.626;4.746;2022-11-15T10:13:34;100391.09;;;19.00;55.88
15314;BME280;7757;52.626;4.746;2022-11-15T10:16:15;100390.78;;;18.97;56.13
15314;BME280;7757;52.626;4.746;2022-11-15T10:18:52;100390.97;;;18.90;56.12
15314;BME280;7757;52.626;4.746;2022-11-15T10:21:27;100388.84;;;18.92;56.14
15314;BME280;7757;52.626;4.746;2022-11-15T10:23:58;100387.13;;;18.86;56.24
15314;BME280;7757;52.626;4.746;2022-11-15T10:26:25;100377.34;;;18.85;56.44
15314;BME280;7757;52.626;4.746;2022-11-15T10:28:52;100370.66;;;18.92;55.62
15314;BME280;7757;52.626;4.746;2022-11-15T10:31:25;100363.31;;;18.88;56.37
15314;BME280;7757;52.626;4.746;2022-11-15T10:33:59;100362.47;;;18.87;56.37
15314;BME280;7757;52.626;4.746;2022-11-15T10:36:36;100364.38;;;18.87;56.09
15314;BME280;7757;52.626;4.746;2022-11-15T10:39:03;100351.63;;;18.87;56.31
15314;BME280;7757;52.626;4.746;2022-11-15T10:41:36;100336.25;;;18.93;56.02
15314;BME280;7757;52.626;4.746;2022-11-15T10:44:11;100334.38;;;18.93;56.03
15314;BME280;7757;52.626;4.746;2022-11-15T10:46:41;100325.41;;;18.93;56.39
15314;BME280;7757;52.626;4.746;2022-11-15T10:49:13;100324.34;;;18.94;56.22
15314;BME280;7757;52.626;4.746;2022-11-15T10:51:43;100323.81;;;18.92;56.16
15314;BME280;7757;52.626;4.746;2022-11-15T10:54:11;100317.25;;;18.88;56.41
15314;BME280;7757;52.626;4.746;2022-11-15T10:56:39;100316.69;;;18.86;56.53
15314;BME280;7757;52.626;4.746;2022-11-15T10:59:15;100310.94;;;18.82;56.41
15314;BME280;7757;52.626;4.746;2022-11-15T11:01:47;100307.97;;;18.84;56.64
15314;BME280;7757;52.626;4.746;2022-11-15T11:04:14;100300.34;;;18.81;56.56
15314;BME280;7757;52.626;4.746;2022-11-15T11:06:48;100302.25;;;18.80;56.79
15314;BME280;7757;52.626;4.746;2022-11-15T11:09:23;100304.38;;;18.78;56.59
15314;BME280;7757;52.626;4.746;2022-11-15T11:11:51;100304.88;;;18.75;56.90
15314;BME280;7757;52.626;4.746;2022-11-15T11:14:20;100310.88;;;18.77;56.63
15314;BME280;7757;52.626;4.746;2022-11-15T11:16:51;100304.06;;;18.75;56.78
15314;BME280;7757;52.626;4.746;2022-11-15T11:19:33;100307.03;;;18.73;56.74
15314;BME280;7757;52.626;4.746;2022-11-15T11:22:06;100308.09;;;18.72;56.78
15314;BME280;7757;52.626;4.746;2022-11-15T11:24:44;100280.44;;;18.70;57.10
15314;BME280;7757;52.626;4.746;2022-11-15T11:27:21;100291.28;;;18.70;57.32
15314;BME280;7757;52.626;4.746;2022-11-15T11:30:03;100288.56;;;18.70;57.04
15314;BME280;7757;52.626;4.746;2022-11-15T11:32:43;100281.78;;;18.68;56.92
15314;BME280;7757;52.626;4.746;2022-11-15T11:35:20;100290.41;;;18.65;56.88
15314;BME280;7757;52.626;4.746;2022-11-15T11:37:51;100293.66;;;18.67;57.37
15314;BME280;7757;52.626;4.746;2022-11-15T11:40:28;100282.50;;;18.63;57.00
15314;BME280;7757;52.626;4.746;2022-11-15T11:42:59;100282.50;;;18.63;57.01
15314;BME280;7757;52.626;4.746;2022-11-15T11:45:47;100288.75;;;18.64;57.15
15314;BME280;7757;52.626;4.746;2022-11-15T11:48:33;100273.84;;;18.61;56.98
15314;BME280;7757;52.626;4.746;2022-11-15T11:51:10;100263.25;;;18.60;57.05
15314;BME280;7757;52.626;4.746;2022-11-15T11:53:42;100268.34;;;18.56;57.28
15314;BME280;7757;52.626;4.746;2022-11-15T11:56:17;100261.84;;;18.57;57.31
15314;BME280;7757;52.626;4.746;2022-11-15T11:58:47;100251.59;;;18.59;57.20
15314;BME280;7757;52.626;4.746;2022-11-15T12:01:16;100248.63;;;18.61;57.36
15314;BME280;7757;52.626;4.746;2022-11-15T12:03:47;100233.19;;;18.61;57.26
15314;BME280;7757;52.626;4.746;2022-11-15T12:06:21;100235.28;;;18.54;57.12
15314;BME280;7757;52.626;4.746;2022-11-15T12:08:53;100227.47;;;18.58;57.49
15314;BME280;7757;52.626;4.746;2022-11-15T12:11:28;100229.94;;;18.59;57.21
15314;BME280;7757;52.626;4.746;2022-11-15T12:13:58;100219.09;;;18.59;57.38
15314;BME280;7757;52.626;4.746;2022-11-15T12:16:27;100218.50;;;18.57;57.36
15314;BME280;7757;52.626;4.746;2022-11-15T12:18:59;100207.44;;;18.59;57.25
15314;BME280;7757;52.626;4.746;2022-11-15T12:21:34;100202.25;;;18.57;57.30
15314;BME280;7757;52.626;4.746;2022-11-15T12:24:05;100201.47;;;18.57;57.21
15314;BME280;7757;52.626;4.746;2022-11-15T12:26:36;100192.75;;;18.55;57.29
15314;BME280;7757;52.626;4.746;2022-11-15T12:29:09;100193.34;;;18.57;57.44
15314;BME280;7757;52.626;4.746;2022-11-15T12:31:38;100189.31;;;18.59;57.05
15314;BME280;7757;52.626;4.746;2022-11-15T12:34:29;100189.31;;;18.59;57.15
15314;BME280;7757;52.626;4.746;2022-11-15T12:36:56;100192.03;;;18.59;57.39
15314;BME280;7757;52.626;4.746;2022-11-15T12:40:17;100166.00;;;18.58;57.42
15314;BME280;7757;52.626;4.746;2022-11-15T12:43:01;100165.13;;;18.53;57.25
15314;BME280;7757;52.626;4.746;2022-11-15T12:45:30;100162.75;;;18.56;57.31
15314;BME280;7757;52.626;4.746;2022-11-15T12:55:01;100160.53;;;18.53;57.47
15314;BME280;7757;52.626;4.746;2022-11-15T12:57:40;100160.44;;;18.48;57.40
15314;BME280;7757;52.626;4.746;2022-11-15T13:03:27;100154.59;;;18.56;57.49
15314;BME280;7757;52.626;4.746;2022-11-15T13:12:11;100137.22;;;18.52;57.64
15314;BME280;7757;52.626;4.746;2022-11-15T13:14:45;100132.47;;;18.42;57.71
15314;BME280;7757;52.626;4.746;2022-11-15T13:17:33;100131.72;;;18.47;57.75
15314;BME280;7757;52.626;4.746;2022-11-15T13:20:19;100130.34;;;18.45;57.71
15314;BME280;7757;52.626;4.746;2022-11-15T13:22:47;100124.44;;;18.48;57.78
15314;BME280;7757;52.626;4.746;2022-11-15T13:28:17;100107.94;;;18.49;57.98
15314;BME280;7757;52.626;4.746;2022-11-15T13:30:50;100104.72;;;18.52;57.81
15314;BME280;7757;52.626;4.746;2022-11-15T13:33:21;100103.81;;;18.47;57.81
15314;BME280;7757;52.626;4.746;2022-11-15T13:35:50;100093.00;;;18.47;57.79
15314;BME280;7757;52.626;4.746;2022-11-15T13:38:19;100093.00;;;18.47;58.04